Time;durP1;ratioP1;P1;durP2;ratioP2;P2;SDS_P1;SDS_P2;PMS_P1;PMS_P2;Temp;Humidity;BMP_temperature;BMP_pressure;BME280_temperature;BME280_humidity;BME280_pressure;Samples;Min_cycle;Max_cycle;Signal;HPM_P1;HPM_P2
2023/10/06 00:02:28;;;;;;;10.30;4.88;;;;;;;15.47;65.28;100686.00;4993649;28;20129;-75
2023/10/06 00:04:56;;;;;;;11.98;4.75;;;;;;;15.47;65.39;100696.63;4994066;28;20053;-76
2023/10/06 00:07:24;;;;;;;6.70;4.85;;;;;;;15.48;65.25;100690.38;4976682;28;20414;-76
2023/10/06 00:09:53;;;;;;;10.77;4.82;;;;;;;15.49;65.16;100694.75;4992564;28;20097;-76
2023/10/06 00:12:20;;;;;;;7.38;4.38;;;;;;;15.50;65.41;100693.78;4989142;28;20050;-78
2023/10/06 00:14:50;;;;;;;9.70;4.72;;;;;;;15.51;65.42;100694.63;4993802;28;20050;-76
2023/10/06 00:17:17;;;;;;;12.00;5.03;;;;;;;15.52;65.39;100692.84;4993224;28;20543;-78
2023/10/06 00:19:46;;;;;;;7.82;5.15;;;;;;;15.51;65.19;100691.97;4993352;28;20054;-79
2023/10/06 00:24:46;;;;;;;12.13;4.63;;;;;;;15.52;65.10;100682.22;4993155;28;20058;-78
2023/10/06 00:27:13;;;;;;;9.50;5.10;;;;;;;15.49;65.21;100678.81;4993374;28;20050;-77
2023/10/06 00:29:48;;;;;;;14.52;4.88;;;;;;;15.47;64.99;100672.75;4975969;28;20487;-74
2023/10/06 00:32:27;;;;;;;9.55;4.35;;;;;;;15.47;64.96;100679.84;4975323;28;20125;-75
2023/10/06 00:35:10;;;;;;;10.85;4.68;;;;;;;15.44;64.64;100682.72;4993438;28;20501;-75
2023/10/06 00:37:39;;;;;;;8.30;4.40;;;;;;;15.40;64.83;100671.41;4993140;28;20058;-75
2023/10/06 00:40:19;;;;;;;8.45;4.72;;;;;;;15.35;65.04;100661.13;4989531;28;20046;-75
2023/10/06 00:42:51;;;;;;;9.50;4.18;;;;;;;15.33;65.25;100656.84;4993261;28;20054;-75
2023/10/06 00:45:17;;;;;;;9.93;4.88;;;;;;;15.29;64.76;100658.81;4990575;28;20050;-74
2023/10/06 00:47:44;;;;;;;12.75;4.50;;;;;;;15.26;64.82;100660.81;4992087;28;20061;-75
2023/10/06 00:50:11;;;;;;;7.75;4.30;;;;;;;15.22;64.92;100666.31;4993139;28;20059;-75
2023/10/06 00:52:40;;;;;;;10.68;4.75;;;;;;;15.18;64.79;100669.28;4993190;28;20129;-77
2023/10/06 00:55:14;;;;;;;12.60;4.72;;;;;;;15.16;65.01;100668.50;4990426;28;20430;-75
2023/10/06 00:57:41;;;;;;;8.48;4.38;;;;;;;15.13;65.00;100658.09;4992705;28;20294;-74
2023/10/06 01:00:20;;;;;;;10.15;5.03;;;;;;;15.08;65.13;100653.94;4975626;28;20483;-75
2023/10/06 01:02:48;;;;;;;8.45;4.60;;;;;;;15.06;65.17;100654.97;4976623;28;20078;-78
2023/10/06 01:05:16;;;;;;;12.55;5.18;;;;;;;15.03;65.22;100649.84;4971972;28;20055;-78
2023/10/06 01:07:46;;;;;;;9.88;4.60;;;;;;;15.01;65.16;100649.09;4980126;28;20047;-78
2023/10/06 01:10:17;;;;;;;9.32;5.25;;;;;;;14.97;65.60;100651.94;4986350;28;20082;-77
2023/10/06 01:12:51;;;;;;;9.95;4.63;;;;;;;14.95;65.21;100635.25;4992133;28;20498;-77
2023/10/06 01:15:20;;;;;;;10.32;4.80;;;;;;;14.93;65.32;100634.53;4983647;28;20471;-78
2023/10/06 01:17:47;;;;;;;14.68;5.85;;;;;;;14.91;65.48;100628.44;4973676;28;20061;-78
2023/10/06 01:23:07;;;;;;;10.05;5.25;;;;;;;14.88;65.42;100625.13;4992543;28;20077;-79
2023/10/06 01:25:37;;;;;;;13.13;5.38;;;;;;;14.85;65.35;100624.38;4992209;28;20050;-78
2023/10/06 01:28:03;;;;;;;8.73;5.25;;;;;;;14.84;65.54;100633.25;4991852;28;20081;-77
2023/10/06 01:30:30;;;;;;;13.85;5.28;;;;;;;14.81;65.60;100625.50;4992515;28;20050;-77
2023/10/06 01:32:58;;;;;;;14.82;5.63;;;;;;;14.80;65.60;100617.66;4974226;28;20050;-77
2023/10/06 01:35:26;;;;;;;13.18;5.43;;;;;;;14.79;65.67;100632.69;4991954;28;20077;-78
2023/10/06 01:38:00;;;;;;;9.98;5.22;;;;;;;14.77;65.77;100639.03;4991870;28;20054;-77
2023/10/06 01:42:54;;;;;;;11.30;6.38;;;;;;;14.73;65.96;100625.09;4990203;28;20458;-77
2023/10/06 01:45:24;;;;;;;10.10;6.32;;;;;;;14.72;65.92;100620.72;4978959;28;20047;-78
2023/10/06 01:47:56;;;;;;;11.63;6.05;;;;;;;14.71;65.83;100613.72;4962904;28;20463;-77
2023/10/06 01:50:27;;;;;;;11.02;6.28;;;;;;;14.72;65.85;100610.13;4991804;28;20053;-77
2023/10/06 01:52:55;;;;;;;14.68;6.45;;;;;;;14.71;65.87;100604.00;4990714;28;20050;-78
2023/10/06 01:55:24;;;;;;;15.05;6.55;;;;;;;14.70;65.85;100610.22;4991676;28;20487;-78
2023/10/06 01:57:51;;;;;;;12.43;6.15;;;;;;;14.69;65.93;100600.56;4988827;28;20046;-74
2023/10/06 02:00:31;;;;;;;14.30;6.32;;;;;;;14.69;65.86;100589.97;4991497;28;20088;-78
2023/10/06 02:02:58;;;;;;;15.02;6.10;;;;;;;14.67;65.83;100580.41;5018493;23;20799;-76
2023/10/06 02:05:25;;;;;;;14.93;6.85;;;;;;;14.65;65.96;100583.16;4973070;28;20059;-77
2023/10/06 02:07:52;;;;;;;13.68;7.07;;;;;;;14.63;65.89;100579.75;4971219;28;20100;-76
2023/10/06 02:10:19;;;;;;;13.27;6.45;;;;;;;14.61;66.12;100580.81;4972757;28;20138;-76
2023/10/06 02:12:45;;;;;;;10.60;6.57;;;;;;;14.58;66.17;100585.31;4972052;28;20046;-76
2023/10/06 02:15:12;;;;;;;12.32;6.95;;;;;;;14.58;66.15;100590.63;4970861;28;20463;-77
2023/10/06 02:17:40;;;;;;;11.90;6.55;;;;;;;14.56;66.29;100596.97;4970957;28;20055;-76
2023/10/06 02:20:29;;;;;;;10.48;6.82;;;;;;;14.54;66.26;100610.28;4992507;28;20082;-76
2023/10/06 02:23:00;;;;;;;11.52;6.35;;;;;;;14.54;66.24;100612.13;4976233;28;20105;-76
2023/10/06 02:25:27;;;;;;;15.65;6.75;;;;;;;14.53;66.33;100599.78;4991703;28;20058;-76
2023/10/06 02:27:56;;;;;;;12.00;7.20;;;;;;;14.52;66.34;100598.94;4990169;28;20056;-75
2023/10/06 02:30:44;;;;;;;12.10;6.88;;;;;;;14.50;66.32;100590.22;4992176;28;20054;-76
2023/10/06 02:33:11;;;;;;;16.67;8.25;;;;;;;14.50;66.41;100584.09;4992126;28;20050;-76
2023/10/06 02:35:46;;;;;;;15.85;7.45;;;;;;;14.49;66.45;100588.53;4981759;28;20046;-76
2023/10/06 02:38:13;;;;;;;13.32;7.03;;;;;;;14.49;66.59;100582.38;4992001;28;20050;-76
2023/10/06 02:40:45;;;;;;;12.98;7.15;;;;;;;14.48;66.60;100589.47;5053059;23;20133;-81
2023/10/06 02:43:20;;;;;;;;;;;;;;;14.45;67.10;100590.53;4992501;28;20058;-81
2023/10/06 02:45:46;;;;;;;9.88;6.32;;;;;;;14.50;66.11;100589.41;4990614;28;20396;-80
2023/10/06 02:48:17;;;;;;;13.60;7.15;;;;;;;14.46;66.17;100581.63;4991935;28;20049;-82
2023/10/06 02:50:49;;;;;;;15.18;8.15;;;;;;;14.41;66.71;100583.72;4991711;28;20052;-81
2023/10/06 02:53:20;;;;;;;12.13;7.30;;;;;;;14.40;66.55;100586.44;4992128;28;20487;-81
2023/10/06 02:55:55;;;;;;;19.02;8.10;;;;;;;14.38;66.69;100593.59;4991285;28;20074;-82
2023/10/06 02:58:30;;;;;;;13.40;7.55;;;;;;;14.37;66.76;100583.97;4972707;28;20153;-81
2023/10/06 03:00:57;;;;;;;12.73;7.35;;;;;;;14.37;66.98;100576.88;4972671;28;20579;-82
2023/10/06 03:03:27;;;;;;;18.20;8.18;;;;;;;14.35;66.90;100578.75;4972097;28;20121;-83
2023/10/06 03:05:56;;;;;;;13.75;7.82;;;;;;;14.35;67.03;100569.97;4990273;28;20447;-81
2023/10/06 03:08:32;;;;;;;14.15;8.05;;;;;;;14.33;66.98;100557.66;4990611;28;20046;-81
2023/10/06 03:11:00;;;;;;;16.48;8.00;;;;;;;14.33;67.01;100562.13;4989156;28;20138;-81
2023/10/06 03:13:35;;;;;;;16.02;8.52;;;;;;;14.31;67.13;100564.84;4990018;28;20685;-82
2023/10/06 03:16:10;;;;;;;14.63;7.57;;;;;;;14.30;67.07;100565.81;4990972;28;20046;-81
2023/10/06 03:18:37;;;;;;;14.38;7.90;;;;;;;14.30;67.18;100560.50;4973720;28;20141;-81
2023/10/06 03:23:43;;;;;;;12.18;7.85;;;;;;;14.28;67.22;100554.44;4991027;28;20055;-82
2023/10/06 03:26:21;;;;;;;14.95;8.05;;;;;;;14.28;67.30;100553.59;4990979;28;20046;-81
2023/10/06 03:28:52;;;;;;;18.55;8.88;;;;;;;14.27;67.24;100551.88;4990769;28;20054;-82
2023/10/06 03:33:48;;;;;;;14.98;8.05;;;;;;;14.25;67.66;100559.94;4991063;28;20058;-81
2023/10/06 03:36:26;;;;;;;13.80;7.53;;;;;;;14.25;67.60;100561.72;4973537;28;20068;-81
2023/10/06 03:38:56;;;;;;;15.07;8.20;;;;;;;14.25;67.57;100556.44;4973239;28;20068;-81
2023/10/06 03:41:31;;;;;;;17.40;8.45;;;;;;;14.24;67.70;100546.78;4990827;28;20458;-81
2023/10/06 03:44:03;;;;;;;13.45;8.07;;;;;;;14.24;67.50;100546.78;4990466;28;20046;-81
2023/10/06 03:46:37;;;;;;;13.50;8.15;;;;;;;14.22;67.67;100546.88;4990899;28;20051;-81
2023/10/06 03:49:07;;;;;;;12.77;8.35;;;;;;;14.20;68.04;100554.03;4990962;28;20058;-81
2023/10/06 03:51:38;;;;;;;15.90;8.45;;;;;;;14.19;67.63;100547.91;4990684;28;20096;-81
2023/10/06 03:54:05;;;;;;;18.05;8.30;;;;;;;14.19;67.64;100553.22;4973474;28;20141;-82
2023/10/06 03:56:32;;;;;;;15.98;8.30;;;;;;;14.18;67.64;100548.88;4974866;28;20129;-81
2023/10/06 03:59:05;;;;;;;14.93;8.63;;;;;;;14.17;67.59;100541.84;4994265;28;20538;-81
2023/10/06 04:01:32;;;;;;;15.32;8.20;;;;;;;14.16;67.77;100545.44;4977008;28;20058;-81
2023/10/06 04:03:58;;;;;;;14.77;7.72;;;;;;;14.15;67.99;100541.09;4994083;28;20069;-81
2023/10/06 04:06:31;;;;;;;16.73;8.90;;;;;;;14.12;68.47;100530.69;4993845;28;20160;-81
2023/10/06 04:08:59;;;;;;;17.50;8.57;;;;;;;14.13;67.90;100527.06;4994225;28;20057;-81
2023/10/06 04:11:31;;;;;;;15.48;8.45;;;;;;;14.12;68.06;100528.03;4993907;28;20050;-80
2023/10/06 04:13:58;;;;;;;15.48;8.85;;;;;;;14.13;68.08;100531.53;4993551;28;20494;-81
2023/10/06 04:16:25;;;;;;;13.10;7.60;;;;;;;14.12;68.04;100528.03;4993557;28;20380;-81
2023/10/06 04:18:51;;;;;;;14.15;8.10;;;;;;;14.11;68.11;100534.28;4994081;28;20047;-81
2023/10/06 04:21:18;;;;;;;14.60;8.13;;;;;;;14.10;68.00;100532.56;4994011;28;20050;-81
2023/10/06 04:23:44;;;;;;;14.48;8.30;;;;;;;14.10;68.14;100529.94;4993907;28;20060;-82
2023/10/06 04:26:14;;;;;;;17.33;8.98;;;;;;;14.08;68.11;100537.09;4993517;28;20058;-81
2023/10/06 04:28:45;;;;;;;15.32;8.23;;;;;;;14.07;68.08;100535.41;4992637;28;20129;-82
2023/10/06 04:31:11;;;;;;;21.45;8.43;;;;;;;14.07;68.03;100532.75;4993978;28;20137;-81
2023/10/06 04:33:38;;;;;;;13.32;8.35;;;;;;;14.06;68.20;100515.19;4993929;28;20105;-80
2023/10/06 04:36:07;;;;;;;15.57;7.57;;;;;;;14.04;68.20;100523.19;4993736;28;20414;-81
2023/10/06 04:38:37;;;;;;;14.27;7.97;;;;;;;14.04;68.41;100535.56;4993606;28;20065;-81
2023/10/06 04:41:08;;;;;;;16.33;8.48;;;;;;;14.03;68.43;100524.16;4993560;28;20454;-80
2023/10/06 04:43:37;;;;;;;16.45;8.15;;;;;;;14.02;68.52;100525.06;4993511;28;20054;-81
2023/10/06 04:46:06;;;;;;;13.98;8.43;;;;;;;14.01;68.39;100531.31;4982426;28;20054;-81
2023/10/06 04:48:36;;;;;;;14.75;8.57;;;;;;;14.02;68.37;100529.53;4972556;28;20047;-81
2023/10/06 04:51:03;;;;;;;12.50;8.30;;;;;;;14.01;68.32;100519.88;4993251;28;20047;-81
2023/10/06 04:53:35;;;;;;;13.80;8.07;;;;;;;14.00;68.43;100534.91;4993286;28;20499;-81
2023/10/06 04:56:06;;;;;;;13.52;7.90;;;;;;;13.97;68.88;100524.50;4993143;28;20054;-81
2023/10/06 04:58:36;;;;;;;14.93;8.07;;;;;;;13.98;68.41;100528.84;4993380;28;20058;-81
2023/10/06 05:01:03;;;;;;;18.27;8.48;;;;;;;13.97;68.55;100523.66;4993371;28;20148;-81
2023/10/06 05:03:41;;;;;;;14.57;8.32;;;;;;;13.97;68.70;100521.84;4993198;28;20503;-81
2023/10/06 05:06:16;;;;;;;18.00;8.32;;;;;;;13.95;69.22;100531.69;4992590;28;20046;-81
2023/10/06 05:08:47;;;;;;;18.77;7.97;;;;;;;13.96;68.55;100521.94;4992534;28;20162;-81
2023/10/06 05:11:16;;;;;;;17.13;8.13;;;;;;;13.94;68.69;100520.25;4993189;28;20053;-81
2023/10/06 05:13:43;;;;;;;16.15;8.13;;;;;;;13.93;68.69;100526.47;4993052;28;20065;-80
2023/10/06 05:16:11;;;;;;;17.83;8.43;;;;;;;13.93;68.79;100513.25;4992479;28;20050;-82
2023/10/06 05:18:38;;;;;;;17.83;8.32;;;;;;;13.92;68.90;100514.19;4992779;28;20061;-81
2023/10/06 05:21:08;;;;;;;12.82;7.43;;;;;;;13.91;68.85;100515.13;4970057;28;20047;-81
2023/10/06 05:23:35;;;;;;;12.68;7.43;;;;;;;13.91;68.68;100515.13;4973739;28;20047;-81
2023/10/06 05:26:08;;;;;;;11.30;7.32;;;;;;;13.90;68.71;100508.13;4973437;28;20086;-81
2023/10/06 05:28:37;;;;;;;15.82;7.85;;;;;;;13.90;69.00;100513.41;4973431;28;20495;-82
2023/10/06 05:31:06;;;;;;;11.20;7.65;;;;;;;13.90;68.94;100521.38;4973204;28;20562;-81
2023/10/06 05:33:33;;;;;;;16.50;8.18;;;;;;;13.90;68.88;100520.50;4990248;28;20069;-81
2023/10/06 05:36:09;;;;;;;12.50;7.90;;;;;;;13.86;69.55;100525.13;4992187;28;20046;-81
2023/10/06 05:38:37;;;;;;;13.27;7.88;;;;;;;13.87;68.90;100521.53;4995166;28;20097;-83
2023/10/06 05:41:07;;;;;;;13.02;7.32;;;;;;;13.87;68.97;100515.41;4992129;28;20050;-82
2023/10/06 05:43:34;;;;;;;14.23;7.90;;;;;;;13.87;69.17;100518.06;4992093;28;20054;-81
2023/10/06 05:46:02;;;;;;;15.75;7.80;;;;;;;13.86;69.10;100505.78;4968019;28;20055;-80
2023/10/06 05:48:30;;;;;;;16.02;8.38;;;;;;;13.85;69.23;100507.56;4989221;28;20050;-81
2023/10/06 05:51:04;;;;;;;14.07;7.28;;;;;;;13.84;69.24;100513.78;4992207;28;20057;-81
2023/10/06 05:53:38;;;;;;;14.20;7.15;;;;;;;13.84;69.32;100508.50;4992206;28;20063;-81
2023/10/06 05:56:08;;;;;;;12.80;6.63;;;;;;;13.84;69.02;100511.16;4992178;28;20061;-81
2023/10/06 05:58:37;;;;;;;12.07;7.25;;;;;;;13.85;69.14;100514.63;4992375;28;20105;-80
2023/10/06 06:01:10;;;;;;;14.30;7.57;;;;;;;13.83;69.21;100509.41;4992368;28;20132;-80
2023/10/06 06:03:42;;;;;;;;;;;;;;;13.84;70.22;100508.50;4992659;28;20054;-80
2023/10/06 06:06:12;;;;;;;14.98;6.70;;;;;;;13.89;68.83;100505.56;4991659;28;20513;-80
2023/10/06 06:08:40;;;;;;;14.77;6.95;;;;;;;13.88;68.95;100512.69;4974594;28;20182;-80
2023/10/06 06:11:06;;;;;;;20.08;7.82;;;;;;;13.86;69.20;100511.91;4992227;28;20093;-80
2023/10/06 06:13:36;;;;;;;14.45;7.15;;;;;;;13.85;69.38;100502.25;4974637;28;20450;-80
2023/10/06 06:16:02;;;;;;;15.15;7.70;;;;;;;13.87;69.59;100515.41;4991462;28;20497;-79
2023/10/06 06:18:30;;;;;;;18.30;7.78;;;;;;;13.87;69.48;100496.88;4991568;28;20056;-82
2023/10/06 06:21:00;;;;;;;10.48;6.53;;;;;;;13.87;69.63;100492.41;4991477;28;20087;-80
2023/10/06 06:23:26;;;;;;;16.42;6.68;;;;;;;13.88;69.50;100498.59;4974372;28;20505;-80
2023/10/06 06:25:52;;;;;;;11.30;5.90;;;;;;;13.90;69.65;100491.38;4991208;28;20141;-80
2023/10/06 06:28:21;;;;;;;15.05;6.93;;;;;;;13.90;69.67;100492.25;4991683;28;20454;-80
2023/10/06 06:30:47;;;;;;;19.13;6.13;;;;;;;13.92;69.66;100494.81;4991689;28;20050;-80
2023/10/06 06:33:17;;;;;;;13.02;6.40;;;;;;;13.93;69.77;100494.72;4991753;28;20046;-80
2023/10/06 06:35:44;;;;;;;14.68;7.10;;;;;;;13.96;69.73;100482.22;4990895;28;20194;-79
2023/10/06 06:38:12;;;;;;;14.02;7.22;;;;;;;13.96;69.76;100491.03;4991878;28;20046;-80
2023/10/06 06:40:40;;;;;;;15.40;7.05;;;;;;;13.98;69.72;100486.50;4991528;28;20054;-80
2023/10/06 06:43:09;;;;;;;14.35;6.65;;;;;;;14.01;69.84;100488.97;4991236;28;20047;-80
2023/10/06 06:45:39;;;;;;;18.67;7.03;;;;;;;14.03;69.82;100480.94;4991193;28;20055;-80
2023/10/06 06:48:12;;;;;;;12.88;6.57;;;;;;;14.05;69.91;100487.84;4991543;28;20129;-80
2023/10/06 06:50:42;;;;;;;;;;;;;;;14.06;70.39;100489.53;4974845;28;20069;-80
2023/10/06 06:53:09;;;;;;;17.15;6.25;;;;;;;14.14;69.52;100486.44;4990841;28;19968;-80
2023/10/06 06:55:39;;;;;;;14.15;5.75;;;;;;;14.14;69.76;100483.81;4991207;28;20058;-80
2023/10/06 06:58:11;;;;;;;15.18;7.10;;;;;;;14.17;69.58;100491.53;4991465;28;20065;-81
2023/10/06 07:00:42;;;;;;;11.63;6.03;;;;;;;14.20;69.57;100498.44;4991234;28;20050;-80
2023/10/06 07:03:10;;;;;;;12.85;6.38;;;;;;;14.24;69.76;100499.97;4973835;28;20054;-80
2023/10/06 07:05:38;;;;;;;15.13;7.10;;;;;;;14.28;69.82;100506.78;4988830;28;20553;-80
2023/10/06 07:08:05;;;;;;;15.15;7.07;;;;;;;14.33;69.73;100517.09;4990675;28;20042;-80
2023/10/06 07:10:32;;;;;;;14.00;5.82;;;;;;;14.39;69.83;100508.75;4990641;28;20046;-80
2023/10/06 07:12:58;;;;;;;13.95;6.15;;;;;;;14.46;69.80;100494.22;4988865;28;20521;-80
2023/10/06 07:15:29;;;;;;;15.60;6.05;;;;;;;14.52;69.69;100497.41;4988501;28;20574;-80
2023/10/06 07:17:57;;;;;;;16.92;7.05;;;;;;;14.58;69.72;100507.66;4990941;28;20127;-80
2023/10/06 07:20:27;;;;;;;12.32;5.53;;;;;;;14.64;69.53;100495.81;4990726;28;20096;-80
2023/10/06 07:22:55;;;;;;;14.82;6.13;;;;;;;14.69;69.37;100491.09;4990232;28;20058;-80
2023/10/06 07:25:24;;;;;;;11.93;5.55;;;;;;;14.73;69.10;100489.94;4990487;28;20054;-80
2023/10/06 07:27:55;;;;;;;13.02;6.32;;;;;;;14.77;69.12;100488.81;4990204;28;20050;-80
2023/10/06 07:30:23;;;;;;;9.80;6.07;;;;;;;14.81;68.87;100495.63;4973321;28;20459;-80
2023/10/06 07:32:59;;;;;;;13.40;6.25;;;;;;;14.86;68.88;100498.00;4993594;28;20137;-80
2023/10/06 07:36:00;;;;;;;14.18;6.45;;;;;;;14.91;68.67;100490.59;4977171;28;20291;-80
2023/10/06 07:38:19;;;;;;;13.70;5.63;;;;;;;14.96;68.71;100501.75;4991675;28;20415;-80
2023/10/06 07:40:45;;;;;;;12.73;6.45;;;;;;;15.01;68.71;100500.63;4994482;28;20289;-80
2023/10/06 07:43:15;;;;;;;13.10;5.72;;;;;;;15.05;68.63;100489.72;4994166;28;20498;-79
2023/10/06 07:45:42;;;;;;;11.25;5.47;;;;;;;15.10;68.76;100498.22;4993897;28;20557;-80
2023/10/06 07:48:09;;;;;;;13.45;7.07;;;;;;;15.15;68.73;100495.28;4993805;28;20051;-81
2023/10/06 07:50:37;;;;;;;12.68;5.75;;;;;;;15.22;68.45;100501.88;4992559;28;20042;-80
2023/10/06 07:53:04;;;;;;;15.88;5.95;;;;;;;15.27;68.75;100503.38;4993523;28;20120;-79
2023/10/06 07:55:31;;;;;;;12.52;6.40;;;;;;;15.33;68.67;100495.06;4994014;28;20048;-80
2023/10/06 07:58:00;;;;;;;13.90;6.30;;;;;;;15.39;68.36;100499.09;4994164;28;20046;-79
2023/10/06 08:00:27;;;;;;;12.40;6.38;;;;;;;15.44;68.28;100497.81;4976208;28;20042;-80
2023/10/06 08:02:59;;;;;;;14.45;6.35;;;;;;;15.49;68.01;100498.41;4992846;28;20061;-80
2023/10/06 08:05:27;;;;;;;13.77;6.68;;;;;;;15.56;67.81;100496.19;4992672;28;20060;-80
2023/10/06 08:07:58;;;;;;;11.65;6.00;;;;;;;15.62;67.84;100508.19;4993066;28;20132;-80
2023/10/06 08:10:25;;;;;;;13.80;5.75;;;;;;;15.67;67.34;100506.09;4993010;28;20046;-80
2023/10/06 08:12:56;;;;;;;13.55;6.05;;;;;;;15.70;67.41;100505.88;4992761;28;20050;-80
2023/10/06 08:15:22;;;;;;;15.50;5.63;;;;;;;15.73;67.17;100505.66;4993050;28;20494;-80
2023/10/06 08:17:52;;;;;;;11.68;5.43;;;;;;;15.74;67.14;100504.72;4993593;28;20470;-80
2023/10/06 08:20:24;;;;;;;11.95;4.82;;;;;;;15.75;66.90;100501.09;4976365;28;20058;-80
2023/10/06 08:22:52;;;;;;;13.82;5.40;;;;;;;15.80;66.99;100507.91;4993638;28;20112;-80
2023/10/06 08:25:19;;;;;;;10.63;4.82;;;;;;;15.82;67.08;100508.66;4993448;28;20069;-80
2023/10/06 08:27:48;;;;;;;12.13;4.40;;;;;;;15.85;67.14;100516.44;4993534;28;20083;-80
2023/10/06 08:30:16;;;;;;;14.25;4.97;;;;;;;15.88;67.01;100506.44;4993481;28;20117;-80
2023/10/06 08:32:53;;;;;;;9.73;4.53;;;;;;;15.93;67.18;100499.97;4993660;28;20104;-81
2023/10/06 08:35:21;;;;;;;11.85;4.95;;;;;;;15.98;67.15;100487.25;4993191;28;20521;-80
2023/10/06 08:37:50;;;;;;;11.40;4.88;;;;;;;16.04;67.07;100501.94;4975847;28;20046;-79
2023/10/06 08:40:26;;;;;;;11.97;4.47;;;;;;;16.10;67.12;100501.50;5151984;23;20047;-77
2023/10/06 08:42:56;;;;;;;7.68;4.28;;;;;;;16.17;66.81;100494.81;4952308;28;20083;-76
2023/10/06 08:45:24;;;;;;;12.73;4.10;;;;;;;16.25;67.00;100486.31;4974576;28;20043;-76
2023/10/06 08:47:59;;;;;;;14.82;4.35;;;;;;;16.32;66.63;100492.03;4974632;28;20061;-75
2023/10/06 08:50:33;;;;;;;9.60;4.10;;;;;;;16.44;66.43;100506.31;4974588;28;20050;-76
2023/10/06 08:53:06;;;;;;;9.32;3.70;;;;;;;16.53;66.65;100519.78;4974264;28;20051;-75
2023/10/06 08:55:37;;;;;;;9.27;4.05;;;;;;;16.62;66.25;100512.13;4957025;28;20035;-75
2023/10/06 08:58:07;;;;;;;9.15;3.92;;;;;;;16.70;65.99;100504.44;4974547;28;20045;-76
2023/10/06 09:00:35;;;;;;;8.35;3.78;;;;;;;16.78;65.70;100502.09;4974451;28;20125;-75
2023/10/06 09:03:08;;;;;;;9.02;4.53;;;;;;;16.88;65.93;100496.97;4955392;28;20523;-76
2023/10/06 09:05:42;;;;;;;8.23;3.65;;;;;;;16.95;65.81;100497.38;4974060;28;20052;-76
2023/10/06 09:08:09;;;;;;;8.10;3.80;;;;;;;17.08;65.80;100485.91;4974232;28;21602;-76
2023/10/06 09:10:48;;;;;;;7.15;3.22;;;;;;;17.16;65.04;100488.84;4974191;28;20043;-77
2023/10/06 09:13:19;;;;;;;13.95;3.65;;;;;;;17.27;65.23;100491.53;4965951;28;20049;-76
2023/10/06 09:16:02;;;;;;;11.95;3.85;;;;;;;17.29;63.99;100481.66;4974060;28;20679;-75
2023/10/06 09:18:31;;;;;;;;;;;;;;;17.38;64.63;100493.41;4957329;28;20479;-76
2023/10/06 09:21:10;;;;;;;11.32;3.67;;;;;;;17.47;64.03;100486.56;4974134;28;19928;-77
2023/10/06 09:23:40;;;;;;;7.97;3.33;;;;;;;17.54;64.45;100492.28;4974036;28;20113;-75
2023/10/06 09:26:08;;;;;;;9.90;3.30;;;;;;;17.60;64.12;100483.81;4973767;28;20087;-76
2023/10/06 09:28:48;;;;;;;7.28;3.50;;;;;;;17.64;63.84;100492.44;4956611;28;20133;-76
2023/10/06 09:31:15;;;;;;;12.40;4.32;;;;;;;17.75;64.09;100481.00;4972655;28;20113;-76
2023/10/06 09:33:44;;;;;;;12.73;3.42;;;;;;;17.81;63.38;100476.03;4973812;28;20054;-76
2023/10/06 09:36:17;;;;;;;9.30;3.72;;;;;;;17.90;63.06;100484.31;4973621;28;20118;-75
2023/10/06 09:39:05;;;;;;;15.32;3.83;;;;;;;17.98;63.13;100474.75;4973778;28;20042;-77
2023/10/06 09:41:32;;;;;;;5.85;3.13;;;;;;;18.04;63.21;100473.41;4973800;28;20065;-76
2023/10/06 09:44:05;;;;;;;10.02;3.53;;;;;;;18.09;62.16;100468.59;4973614;28;20399;-76
2023/10/06 09:46:36;;;;;;;12.32;3.22;;;;;;;18.18;62.48;100469.72;4973449;28;20134;-76
2023/10/06 09:49:05;;;;;;;6.68;3.45;;;;;;;18.23;62.16;100466.69;4973804;28;20046;-76
2023/10/06 09:51:33;;;;;;;10.38;3.05;;;;;;;18.29;62.51;100458.22;4973225;28;20471;-77
2023/10/06 09:54:00;;;;;;;12.02;3.42;;;;;;;18.35;62.34;100475.53;4972975;28;20088;-75
2023/10/06 09:56:27;;;;;;;12.45;3.75;;;;;;;18.39;62.25;100465.50;4972917;28;20089;-75
2023/10/06 09:58:55;;;;;;;8.23;3.67;;;;;;;18.43;61.50;100465.09;4972997;28;20039;-76
2023/10/06 10:01:25;;;;;;;10.05;3.72;;;;;;;18.47;61.28;100476.41;4972625;28;20066;-76
2023/10/06 10:03:54;;;;;;;7.13;3.35;;;;;;;18.52;61.29;100466.22;4972690;28;20042;-76
2023/10/06 10:06:22;;;;;;;8.65;4.18;;;;;;;18.56;61.49;100478.34;4972369;28;20043;-77
2023/10/06 10:08:51;;;;;;;11.93;3.47;;;;;;;18.62;61.05;100469.84;4972726;28;20130;-76
2023/10/06 10:11:28;;;;;;;8.90;3.42;;;;;;;18.69;60.94;100459.53;4972610;28;20058;-76
2023/10/06 10:14:31;;;;;;;8.10;3.58;;;;;;;18.78;60.92;100457.09;4972286;28;20042;-75
2023/10/06 10:17:19;;;;;;;11.00;3.15;;;;;;;18.94;61.73;100459.34;4972453;28;20090;-76
2023/10/06 10:19:47;;;;;;;8.10;2.75;;;;;;;19.12;61.91;100465.91;4972374;28;20061;-76
2023/10/06 10:22:16;;;;;;;10.32;3.55;;;;;;;19.26;61.12;100461.25;4972203;28;20082;-76
2023/10/06 10:24:45;;;;;;;10.52;2.80;;;;;;;19.39;61.13;100459.25;4972267;28;20053;-76
2023/10/06 10:27:20;;;;;;;9.30;3.40;;;;;;;19.52;60.78;100448.38;4972052;28;20138;-77
2023/10/06 10:29:47;;;;;;;10.18;3.42;;;;;;;19.63;60.41;100439.47;4955110;28;20631;-76
2023/10/06 10:32:16;;;;;;;9.98;3.47;;;;;;;19.74;59.60;100445.72;4972084;28;20053;-76
2023/10/06 10:35:15;;;;;;;10.23;3.08;;;;;;;19.82;59.69;100453.94;4972065;28;20047;-77
2023/10/06 10:37:59;;;;;;;5.13;3.05;;;;;;;19.95;59.19;100442.22;4972145;28;20055;-77
2023/10/06 10:40:31;;;;;;;5.78;2.72;;;;;;;20.11;59.17;100437.25;4972090;28;20051;-76
2023/10/06 10:43:06;;;;;;;8.52;3.03;;;;;;;20.18;58.50;100434.88;4972038;28;20403;-76
2023/10/06 10:45:43;;;;;;;9.70;3.10;;;;;;;20.28;57.36;100427.75;4971783;28;20049;-76
2023/10/06 10:48:13;;;;;;;10.07;3.22;;;;;;;20.39;58.22;100434.84;4972148;28;20049;-75
2023/10/06 10:50:52;;;;;;;9.93;3.10;;;;;;;20.47;56.74;100441.31;4972092;28;20043;-75
2023/10/06 10:53:22;;;;;;;7.78;3.25;;;;;;;20.59;57.03;100434.06;4971770;28;20058;-77
2023/10/06 10:55:50;;;;;;;6.70;3.42;;;;;;;20.68;57.29;100420.69;4954538;28;20072;-75
2023/10/06 10:58:47;;;;;;;8.00;3.17;;;;;;;20.73;56.38;100417.63;4971662;28;20058;-75
2023/10/06 11:01:27;;;;;;;6.38;3.10;;;;;;;20.87;55.13;100408.38;4964244;28;20073;-77
2023/10/06 11:04:09;;;;;;;9.00;3.28;;;;;;;20.97;54.07;100392.31;4971778;28;20125;-75
2023/10/06 11:06:39;;;;;;;6.60;3.50;;;;;;;21.15;56.66;100397.81;4973714;28;20542;-76
2023/10/06 11:09:25;;;;;;;8.38;3.17;;;;;;;21.29;54.19;100393.88;4976014;28;20110;-75
2023/10/06 11:11:58;;;;;;;11.70;2.95;;;;;;;21.58;56.37;100395.69;4975861;28;20051;-76
2023/10/06 11:14:51;;;;;;;11.10;3.03;;;;;;;21.94;56.42;100402.25;4975511;28;20054;-76
2023/10/06 11:17:22;;;;;;;8.43;2.92;;;;;;;22.24;55.18;100387.72;4975711;28;20051;-76
2023/10/06 11:20:12;;;;;;;9.40;2.92;;;;;;;22.58;53.13;100382.78;4975835;28;20050;-76
2023/10/06 11:22:59;;;;;;;6.90;2.70;;;;;;;23.07;53.14;100393.16;4975556;28;20043;-78
2023/10/06 11:25:27;;;;;;;6.78;2.70;;;;;;;23.60;55.06;100384.34;4974157;28;20459;-76
2023/10/06 11:28:03;;;;;;;5.80;2.53;;;;;;;24.01;51.55;100381.06;4975267;28;20046;-76
2023/10/06 11:30:32;;;;;;;8.48;2.88;;;;;;;24.31;51.23;100387.78;4975643;28;20038;-77
2023/10/06 11:33:05;;;;;;;4.80;2.72;;;;;;;24.42;48.78;100385.78;4975014;28;20082;-77
2023/10/06 11:35:34;;;;;;;9.00;3.30;;;;;;;24.44;49.28;100383.75;4973912;28;20054;-76
2023/10/06 11:38:07;;;;;;;7.93;3.08;;;;;;;24.32;48.33;100381.38;4974910;28;20137;-77
2023/10/06 11:40:37;;;;;;;5.93;2.90;;;;;;;24.26;49.29;100384.72;4975135;28;20395;-77
2023/10/06 11:43:17;;;;;;;7.07;2.90;;;;;;;24.15;48.81;100387.72;4973946;28;20093;-76
2023/10/06 11:45:44;;;;;;;5.32;2.53;;;;;;;24.17;49.83;100391.91;4974086;28;20047;-76
2023/10/06 11:48:35;;;;;;;7.70;2.75;;;;;;;24.07;49.05;100373.19;4957476;28;20098;-77
2023/10/06 11:51:06;;;;;;;6.80;2.85;;;;;;;24.10;48.54;100390.00;4975278;28;20434;-76